createdAt,value
2023-02-23T00:01:56.386Z,9.90
2023-02-23T00:04:26.581Z,9.90
2023-02-23T00:06:55.035Z,9.90
2023-02-23T00:09:35.382Z,9.90
2023-02-23T00:12:08.147Z,9.80
2023-02-23T00:14:39.030Z,9.80
2023-02-23T00:17:14.496Z,9.80
2023-02-23T00:19:44.683Z,9.80
2023-02-23T00:22:13.037Z,9.80
2023-02-23T00:24:43.590Z,9.80
2023-02-23T00:27:17.829Z,9.70
2023-02-23T00:29:49.720Z,9.70
2023-02-23T00:32:21.791Z,9.70
2023-02-23T00:34:50.917Z,9.70
2023-02-23T00:37:22.140Z,9.70
2023-02-23T00:39:53.186Z,9.80
2023-02-23T00:42:21.668Z,9.70
2023-02-23T00:44:53.398Z,9.70
2023-02-23T00:47:21.859Z,9.70
2023-02-23T00:49:52.558Z,9.70
2023-02-23T00:52:23.462Z,9.80
2023-02-23T00:55:03.423Z,9.70
2023-02-23T00:57:34.490Z,9.70
2023-02-23T01:00:10.692Z,9.80
2023-02-23T01:02:43.086Z,9.80
2023-02-23T01:05:14.067Z,9.90
2023-02-23T01:07:42.379Z,9.90
2023-02-23T01:10:20.137Z,9.90
2023-02-23T01:12:50.717Z,9.90
2023-02-23T01:15:21.060Z,9.90
2023-02-23T01:17:49.663Z,9.90
2023-02-23T01:20:19.722Z,9.90
2023-02-23T01:22:52.576Z,9.90
2023-02-23T01:25:38.658Z,9.90
2023-02-23T01:28:06.946Z,9.90
2023-02-23T01:30:35.337Z,9.90
2023-02-23T01:33:03.826Z,9.90
2023-02-23T01:35:33.309Z,9.90
2023-02-23T01:38:02.281Z,10.00
2023-02-23T01:40:36.854Z,10.00
2023-02-23T01:43:17.628Z,10.00
2023-02-23T01:45:47.068Z,10.00
2023-02-23T01:48:19.631Z,10.00
2023-02-23T01:50:53.842Z,10.00
2023-02-23T01:53:22.818Z,10.00
2023-02-23T01:55:55.120Z,9.90
2023-02-23T01:58:26.981Z,9.90
2023-02-23T02:00:58.201Z,9.90
2023-02-23T02:03:29.867Z,9.90
2023-02-23T02:06:01.520Z,9.80
2023-02-23T02:08:33.658Z,9.90
2023-02-23T02:11:09.051Z,9.80
2023-02-23T02:13:43.379Z,9.80
2023-02-23T02:16:35.139Z,9.80
2023-02-23T02:19:31.794Z,9.80
2023-02-23T02:22:41.876Z,9.90
2023-02-23T02:25:35.558Z,9.90
2023-02-23T02:28:43.599Z,9.90
2023-02-23T02:31:49.929Z,9.90
2023-02-23T02:35:04.127Z,9.90
2023-02-23T02:37:44.136Z,9.90
2023-02-23T02:40:22.513Z,9.90
2023-02-23T02:43:00.504Z,9.90
2023-02-23T02:45:35.344Z,9.90
2023-02-23T02:48:15.635Z,10.00
2023-02-23T02:50:50.279Z,10.00
2023-02-23T02:53:32.859Z,9.90
2023-02-23T02:56:07.403Z,9.80
2023-02-23T02:58:40.542Z,9.70
2023-02-23T03:01:36.536Z,9.70
2023-02-23T03:04:39.076Z,9.80
2023-02-23T03:07:34.855Z,9.80
2023-02-23T03:10:32.038Z,9.70
2023-02-23T03:13:26.841Z,9.70
2023-02-23T03:16:36.164Z,9.70
2023-02-23T03:19:38.957Z,9.70
2023-02-23T03:22:32.142Z,9.60
2023-02-23T03:25:26.483Z,9.60
2023-02-23T03:28:23.540Z,9.60
2023-02-23T03:31:18.561Z,9.50
2023-02-23T03:34:12.567Z,9.60
2023-02-23T03:37:06.853Z,9.50
2023-02-23T03:39:58.193Z,9.50
2023-02-23T03:42:48.906Z,9.50
2023-02-23T03:45:40.173Z,9.60
2023-02-23T03:48:31.978Z,9.80
2023-02-23T03:51:22.823Z,9.50
2023-02-23T03:54:15.585Z,9.70
2023-02-23T03:57:07.642Z,9.70
2023-02-23T04:00:00.618Z,9.70
2023-02-23T04:02:50.510Z,9.80
2023-02-23T04:05:38.471Z,9.70
2023-02-23T04:08:28.554Z,9.70
2023-02-23T04:11:22.726Z,9.70
2023-02-23T04:14:00.837Z,9.70
2023-02-23T04:16:32.658Z,9.70
2023-02-23T04:19:14.465Z,9.70
2023-02-23T04:21:43.062Z,9.80
2023-02-23T04:24:15.370Z,9.90
2023-02-23T04:26:46.192Z,9.80
2023-02-23T04:29:14.865Z,9.80
2023-02-23T04:31:44.193Z,9.80
2023-02-23T04:34:17.034Z,9.80
2023-02-23T04:36:45.764Z,9.90
2023-02-23T04:39:14.447Z,9.70
2023-02-23T04:41:45.964Z,9.80
2023-02-23T04:44:14.404Z,9.70
2023-02-23T04:46:43.226Z,9.70
2023-02-23T04:49:18.185Z,9.80
2023-02-23T04:51:50.373Z,9.80
2023-02-23T04:54:18.960Z,9.70
2023-02-23T04:57:14.936Z,9.70
2023-02-23T04:59:52.403Z,9.60
2023-02-23T05:02:20.951Z,9.60
2023-02-23T05:04:51.419Z,9.60
2023-02-23T05:07:22.527Z,9.60
2023-02-23T05:12:52.308Z,9.50
2023-02-23T05:15:21.336Z,9.50
2023-02-23T05:17:52.886Z,9.60
2023-02-23T05:20:30.002Z,9.50
2023-02-23T05:23:01.808Z,9.60
2023-02-23T05:25:46.113Z,9.40
2023-02-23T05:28:16.618Z,9.70
2023-02-23T05:30:48.195Z,9.50
2023-02-23T05:33:20.178Z,9.60
2023-02-23T05:35:54.649Z,9.60
2023-02-23T05:38:23.472Z,9.60
2023-02-23T05:40:54.397Z,9.70
2023-02-23T05:43:23.076Z,9.50
2023-02-23T05:45:52.481Z,9.50
2023-02-23T05:48:24.062Z,9.50
2023-02-23T05:50:53.952Z,9.50
2023-02-23T05:53:22.958Z,9.50
2023-02-23T05:55:52.307Z,9.50
2023-02-23T05:58:20.391Z,9.60
2023-02-23T06:00:48.700Z,9.50
2023-02-23T06:03:17.038Z,9.70
2023-02-23T06:05:53.542Z,9.50
2023-02-23T06:08:23.695Z,9.40
2023-02-23T06:10:52.094Z,9.60
2023-02-23T06:13:23.401Z,9.50
2023-02-23T06:15:52.238Z,9.50
2023-02-23T06:18:28.804Z,9.50
2023-02-23T06:21:03.068Z,9.40
2023-02-23T06:23:35.802Z,9.40
2023-02-23T06:26:10.448Z,9.40
2023-02-23T06:28:38.769Z,9.30
2023-02-23T06:31:08.090Z,9.30
2023-02-23T06:33:39.911Z,9.30
2023-02-23T06:36:08.744Z,9.30
2023-02-23T06:38:38.550Z,9.30
2023-02-23T06:41:13.646Z,9.30
2023-02-23T06:43:42.344Z,9.40
2023-02-23T06:46:11.332Z,9.30
2023-02-23T06:48:51.245Z,9.30
2023-02-23T06:51:25.658Z,9.20
2023-02-23T06:53:58.752Z,9.20
2023-02-23T06:56:34.663Z,9.30
2023-02-23T06:59:05.838Z,9.30
2023-02-23T07:01:38.483Z,9.30
2023-02-23T07:04:11.326Z,9.30
2023-02-23T07:06:42.871Z,9.20
2023-02-23T07:09:12.728Z,9.20
2023-02-23T07:11:42.327Z,9.20
2023-02-23T07:14:21.511Z,9.20
2023-02-23T07:16:59.575Z,9.20
2023-02-23T07:19:28.859Z,9.20
2023-02-23T07:22:06.224Z,9.20
2023-02-23T07:24:42.133Z,9.20
2023-02-23T07:27:10.456Z,9.30
2023-02-23T07:29:41.728Z,9.30
2023-02-23T07:32:13.802Z,9.30
2023-02-23T07:34:42.469Z,9.30
2023-02-23T07:37:21.709Z,9.30
2023-02-23T07:39:53.230Z,9.30
2023-02-23T07:42:22.142Z,9.30
2023-02-23T07:44:51.033Z,9.30
2023-02-23T07:47:20.864Z,9.30
2023-02-23T07:49:50.877Z,9.40
2023-02-23T07:52:19.759Z,9.30
2023-02-23T07:54:50.273Z,9.30
2023-02-23T07:57:22.506Z,9.30
2023-02-23T07:59:52.755Z,9.30
2023-02-23T08:02:21.379Z,9.30
2023-02-23T08:04:50.020Z,9.30
2023-02-23T08:07:29.508Z,9.30
2023-02-23T08:09:57.822Z,9.40
2023-02-23T08:12:32.235Z,9.40
2023-02-23T08:15:00.781Z,9.30
2023-02-23T08:17:32.025Z,9.30
2023-02-23T08:20:01.403Z,9.30
2023-02-23T08:22:37.867Z,9.30
2023-02-23T08:25:12.929Z,9.30
2023-02-23T08:27:45.352Z,9.30
2023-02-23T08:30:15.657Z,9.30
2023-02-23T08:32:44.177Z,9.30
2023-02-23T08:35:13.281Z,9.30
2023-02-23T08:37:42.042Z,9.30
2023-02-23T08:40:15.833Z,9.30
2023-02-23T08:42:46.137Z,9.30
2023-02-23T08:45:14.703Z,9.30
2023-02-23T08:47:49.200Z,9.30
2023-02-23T08:50:17.330Z,9.30
2023-02-23T08:52:45.614Z,9.30
2023-02-23T08:57:57.862Z,9.40
2023-02-23T09:00:29.332Z,9.50
2023-02-23T09:02:57.748Z,9.40
2023-02-23T09:05:29.919Z,9.40
2023-02-23T09:07:58.341Z,9.40
2023-02-23T09:10:36.522Z,9.40
2023-02-23T09:13:12.736Z,9.40
2023-02-23T09:15:44.951Z,9.50
2023-02-23T09:18:15.788Z,9.50
2023-02-23T09:20:44.577Z,9.50
2023-02-23T09:23:16.046Z,9.50
2023-02-23T09:25:45.255Z,9.60
2023-02-23T09:28:22.387Z,9.60
2023-02-23T09:30:53.306Z,9.70
2023-02-23T09:33:21.579Z,9.60
2023-02-23T09:35:49.935Z,9.60
2023-02-23T09:38:18.351Z,9.70
2023-02-23T09:40:49.963Z,9.70
2023-02-23T09:43:28.139Z,9.70
2023-02-23T09:46:05.740Z,9.80
2023-02-23T09:48:36.185Z,9.80
2023-02-23T09:51:09.001Z,10.00
2023-02-23T09:53:42.990Z,9.90
2023-02-23T09:56:15.799Z,10.00
2023-02-23T09:58:45.700Z,10.00
2023-02-23T10:01:48.948Z,10.00
2023-02-23T10:04:22.096Z,10.00
2023-02-23T10:06:56.604Z,10.00
2023-02-23T10:09:43.948Z,10.10
2023-02-23T10:12:19.170Z,10.00
2023-02-23T10:15:06.807Z,10.00
2023-02-23T10:17:45.848Z,10.00
2023-02-23T10:20:24.801Z,10.10
2023-02-23T10:22:57.085Z,10.00
2023-02-23T10:25:29.201Z,10.10
2023-02-23T10:28:06.261Z,10.20
2023-02-23T10:30:38.910Z,10.20
2023-02-23T10:33:19.222Z,10.30
2023-02-23T10:35:58.013Z,10.30
2023-02-23T10:38:39.431Z,10.30
2023-02-23T10:41:09.755Z,10.30
2023-02-23T10:43:40.742Z,10.30
2023-02-23T10:46:21.301Z,10.20
2023-02-23T10:48:52.303Z,10.20
2023-02-23T10:51:28.506Z,10.20
2023-02-23T10:53:57.301Z,10.10
2023-02-23T10:56:32.839Z,10.10
2023-02-23T10:59:01.212Z,10.00
2023-02-23T11:02:02.965Z,10.20
2023-02-23T11:04:36.402Z,10.20
2023-02-23T11:07:10.949Z,10.00
2023-02-23T11:09:47.113Z,9.90
2023-02-23T11:12:23.056Z,9.90
2023-02-23T11:14:52.013Z,9.90
2023-02-23T11:17:29.609Z,9.90
2023-02-23T11:20:06.740Z,9.90
2023-02-23T11:22:39.006Z,9.90
2023-02-23T11:25:18.823Z,9.90
2023-02-23T11:27:51.605Z,10.00
2023-02-23T11:30:24.507Z,10.00
2023-02-23T11:32:55.747Z,10.10
2023-02-23T11:35:31.615Z,10.20
2023-02-23T11:38:00.264Z,10.20
2023-02-23T11:40:31.816Z,10.20
2023-02-23T11:43:09.996Z,10.40
2023-02-23T11:45:46.292Z,10.30
2023-02-23T11:48:23.425Z,10.30
2023-02-23T11:50:53.016Z,10.30
2023-02-23T11:53:29.647Z,10.40
2023-02-23T11:56:02.819Z,10.50
2023-02-23T11:58:37.038Z,10.30
2023-02-23T12:01:12.493Z,10.30
2023-02-23T12:03:48.002Z,10.30
2023-02-23T12:06:44.497Z,10.30
2023-02-23T12:09:43.354Z,10.40
2023-02-23T12:12:25.978Z,10.60
2023-02-23T12:15:16.627Z,10.50
2023-02-23T12:18:09.410Z,10.40
2023-02-23T12:21:22.140Z,10.50
2023-02-23T12:24:13.352Z,10.70
2023-02-23T12:27:14.807Z,10.70
2023-02-23T12:30:06.241Z,10.80
2023-02-23T12:33:03.265Z,10.80
2023-02-23T12:35:52.437Z,10.70
2023-02-23T12:38:55.223Z,10.60
2023-02-23T12:47:48.280Z,10.80
2023-02-23T12:50:26.926Z,10.70
2023-02-23T12:59:26.478Z,10.70
2023-02-23T13:02:32.994Z,10.80
2023-02-23T13:05:21.096Z,10.80
2023-02-23T13:08:15.684Z,10.70
2023-02-23T13:11:06.852Z,10.70
2023-02-23T13:19:44.345Z,10.80
2023-02-23T13:22:31.567Z,10.80
2023-02-23T13:28:42.215Z,10.80
2023-02-23T13:31:52.443Z,10.70
2023-02-23T13:34:32.714Z,10.70
2023-02-23T13:37:12.042Z,10.80
2023-02-23T13:40:04.834Z,10.60
2023-02-23T13:42:50.712Z,10.60
2023-02-23T13:45:33.793Z,10.60
2023-02-23T13:48:20.344Z,10.60
2023-02-23T13:51:08.911Z,10.60
2023-02-23T13:53:50.131Z,10.50
2023-02-23T13:56:24.658Z,10.50
2023-02-23T13:58:58.576Z,10.40
2023-02-23T14:01:35.892Z,10.40
2023-02-23T14:04:14.684Z,10.40
2023-02-23T14:06:59.023Z,10.30
2023-02-23T14:09:34.209Z,10.50
2023-02-23T14:12:19.370Z,10.50
2023-02-23T14:14:51.816Z,10.50
2023-02-23T14:17:58.688Z,10.60
2023-02-23T14:20:56.058Z,10.40
2023-02-23T14:23:47.897Z,10.40
2023-02-23T14:44:30.205Z,10.40
2023-02-23T14:47:05.511Z,10.70
2023-02-23T14:49:38.041Z,10.50
2023-02-23T14:52:08.753Z,10.50
2023-02-23T14:54:38.503Z,10.60
2023-02-23T14:57:08.569Z,10.60
2023-02-23T14:59:43.101Z,10.70
2023-02-23T15:02:12.875Z,10.60
2023-02-23T15:04:42.225Z,10.50
2023-02-23T15:07:18.729Z,10.50
2023-02-23T15:09:48.518Z,10.50
2023-02-23T15:12:21.053Z,10.40
2023-02-23T15:14:51.558Z,10.40
2023-02-23T15:17:23.413Z,10.40
2023-02-23T15:20:14.307Z,10.30
2023-02-23T15:22:46.820Z,10.30
2023-02-23T15:25:18.430Z,10.20
2023-02-23T15:27:47.691Z,10.20
2023-02-23T15:30:24.423Z,10.20
2023-02-23T15:33:01.932Z,10.10
2023-02-23T15:35:33.123Z,10.10
2023-02-23T15:38:14.275Z,10.00
2023-02-23T15:40:47.212Z,9.90
2023-02-23T15:43:15.420Z,9.90
2023-02-23T15:45:50.641Z,9.80
2023-02-23T15:48:22.823Z,9.70
2023-02-23T15:50:54.975Z,9.70
2023-02-23T15:53:30.403Z,9.60
2023-02-23T15:56:03.700Z,9.50
2023-02-23T15:58:35.095Z,9.40
2023-02-23T16:01:13.176Z,9.30
2023-02-23T16:03:47.142Z,9.30
2023-02-23T16:06:24.998Z,9.10
2023-02-23T16:09:05.906Z,9.10
2023-02-23T16:11:36.555Z,9.00
2023-02-23T16:14:06.957Z,9.00
2023-02-23T16:16:37.680Z,9.00
2023-02-23T16:19:07.910Z,8.90
2023-02-23T16:21:39.895Z,8.90
2023-02-23T16:24:11.468Z,8.90
2023-02-23T16:26:46.834Z,8.80
2023-02-23T16:29:19.093Z,9.00
2023-02-23T16:31:51.099Z,8.70
2023-02-23T16:34:21.888Z,8.70
2023-02-23T16:36:57.740Z,8.80
2023-02-23T16:39:29.287Z,8.70
2023-02-23T16:41:58.622Z,8.70
2023-02-23T16:44:37.827Z,8.70
2023-02-23T16:47:48.292Z,8.70
2023-02-23T16:50:20.482Z,8.70
2023-02-23T16:52:53.571Z,8.60
2023-02-23T16:55:26.004Z,8.60
2023-02-23T16:57:56.897Z,8.50
2023-02-23T17:00:28.747Z,8.50
2023-02-23T17:03:00.915Z,8.40
2023-02-23T17:05:30.493Z,8.50
2023-02-23T17:07:59.188Z,8.40
2023-02-23T17:10:31.457Z,8.30
2023-02-23T17:13:02.626Z,8.30
2023-02-23T17:15:34.156Z,8.50
2023-02-23T17:18:03.819Z,8.30
2023-02-23T17:20:32.784Z,8.30
2023-02-23T17:23:02.274Z,8.20
2023-02-23T17:25:30.939Z,8.10
2023-02-23T17:27:59.933Z,8.20
2023-02-23T17:30:38.048Z,8.30
2023-02-23T17:33:10.452Z,8.20
2023-02-23T17:35:38.873Z,8.20
2023-02-23T17:38:08.157Z,8.20
2023-02-23T17:40:38.088Z,8.10
2023-02-23T17:43:08.652Z,8.30
2023-02-23T17:45:37.286Z,8.10
2023-02-23T17:48:05.675Z,8.10
2023-02-23T17:50:35.294Z,8.00
2023-02-23T17:53:03.521Z,8.00
2023-02-23T17:55:33.720Z,8.10
2023-02-23T17:58:01.830Z,8.10
2023-02-23T18:00:29.946Z,8.00
2023-02-23T18:02:57.939Z,7.80
2023-02-23T18:05:26.130Z,7.80
2023-02-23T18:07:55.805Z,7.80
2023-02-23T18:10:25.609Z,7.70
2023-02-23T18:12:53.913Z,7.70
2023-02-23T18:15:22.434Z,7.60
2023-02-23T18:17:54.724Z,7.70
2023-02-23T18:20:23.071Z,7.90
2023-02-23T18:22:52.830Z,7.70
2023-02-23T18:25:26.812Z,7.70
2023-02-23T18:27:55.572Z,7.70
2023-02-23T18:30:25.102Z,7.50
2023-02-23T18:32:57.849Z,7.70
2023-02-23T18:35:26.057Z,7.70
2023-02-23T18:37:54.342Z,7.70
2023-02-23T18:40:24.951Z,7.70
2023-02-23T18:42:53.195Z,7.70
2023-02-23T18:45:21.601Z,7.60
2023-02-23T18:47:49.604Z,7.60
2023-02-23T18:50:19.290Z,7.60
2023-02-23T18:52:48.187Z,7.50
2023-02-23T18:55:17.017Z,7.50
2023-02-23T18:57:46.901Z,7.50
2023-02-23T19:00:16.711Z,7.40
2023-02-23T19:02:49.347Z,7.40
2023-02-23T19:05:21.006Z,7.30
2023-02-23T19:07:51.535Z,7.30
2023-02-23T19:10:19.956Z,7.30
2023-02-23T19:12:52.374Z,7.30
2023-02-23T19:15:20.667Z,7.20
2023-02-23T19:17:48.765Z,7.20
2023-02-23T19:20:19.621Z,7.30
2023-02-23T19:22:48.057Z,7.10
2023-02-23T19:25:16.748Z,7.10
2023-02-23T19:27:45.094Z,7.00
2023-02-23T19:30:15.339Z,7.00
2023-02-23T19:32:44.344Z,7.00
2023-02-23T19:35:15.909Z,7.00
2023-02-23T19:37:52.153Z,6.90
2023-02-23T19:40:22.698Z,7.00
2023-02-23T19:42:53.321Z,6.90
2023-02-23T19:45:24.926Z,6.90
2023-02-23T19:47:53.460Z,6.90
2023-02-23T19:50:22.573Z,6.90
2023-02-23T19:52:50.760Z,6.80
2023-02-23T19:55:20.543Z,6.90
2023-02-23T19:57:48.643Z,7.00
2023-02-23T20:00:17.446Z,6.90
2023-02-23T20:02:54.843Z,6.90
2023-02-23T20:05:25.611Z,6.90
2023-02-23T20:07:54.849Z,6.90
2023-02-23T20:10:27.019Z,6.90
2023-02-23T20:12:55.476Z,6.90
2023-02-23T20:15:24.044Z,6.90
2023-02-23T20:17:53.960Z,6.90
2023-02-23T20:20:25.529Z,6.90
2023-02-23T20:22:55.518Z,7.10
2023-02-23T20:25:24.407Z,7.00
2023-02-23T20:27:52.484Z,7.00
2023-02-23T20:30:20.969Z,6.90
2023-02-23T20:32:49.762Z,6.90
2023-02-23T20:35:20.556Z,6.90
2023-02-23T20:37:48.783Z,6.90
2023-02-23T20:40:18.638Z,6.70
2023-02-23T20:42:47.874Z,6.70
2023-02-23T20:45:17.815Z,6.60
2023-02-23T20:47:52.052Z,6.60
2023-02-23T20:50:23.035Z,6.50
2023-02-23T20:52:51.737Z,6.50
2023-02-23T20:55:20.180Z,6.40
2023-02-23T20:57:49.940Z,6.40
2023-02-23T21:00:26.681Z,6.40
2023-02-23T21:02:55.747Z,6.40
2023-02-23T21:05:28.553Z,6.50
2023-02-23T21:08:00.108Z,6.40
2023-02-23T21:10:30.975Z,6.40
2023-02-23T21:12:59.067Z,6.30
2023-02-23T21:15:29.290Z,6.30
2023-02-23T21:18:00.676Z,6.50
2023-02-23T21:20:33.856Z,6.20
2023-02-23T21:23:12.876Z,6.10
2023-02-23T21:25:44.481Z,6.10
2023-02-23T21:28:16.230Z,6.10
2023-02-23T21:30:49.838Z,6.20
2023-02-23T21:33:23.126Z,6.00
2023-02-23T21:36:06.129Z,6.30
2023-02-23T21:38:35.186Z,5.90
2023-02-23T21:41:08.438Z,6.00
2023-02-23T21:43:43.499Z,5.60
2023-02-23T21:46:19.624Z,5.80
2023-02-23T21:48:48.203Z,5.60
2023-02-23T21:51:19.133Z,5.70
2023-02-23T21:53:48.333Z,5.70
2023-02-23T21:56:20.362Z,5.70
2023-02-23T21:58:53.657Z,5.60
2023-02-23T22:01:24.770Z,5.60
2023-02-23T22:03:55.211Z,5.50
2023-02-23T22:06:27.174Z,6.90
2023-02-23T22:08:58.842Z,5.60
2023-02-23T22:11:29.366Z,5.40
2023-02-23T22:14:00.431Z,6.00
2023-02-23T22:16:34.276Z,5.30
2023-02-23T22:19:15.211Z,5.30
2023-02-23T22:21:47.838Z,5.60
2023-02-23T22:24:20.114Z,5.20
2023-02-23T22:26:54.285Z,5.40
2023-02-23T22:29:24.547Z,6.10
2023-02-23T22:31:53.439Z,5.10
2023-02-23T22:34:22.518Z,5.10
2023-02-23T22:36:52.565Z,5.10
2023-02-23T22:39:35.191Z,5.50
2023-02-23T22:42:09.449Z,5.00
2023-02-23T22:44:39.976Z,5.00
2023-02-23T22:47:08.659Z,4.90
2023-02-23T22:49:37.295Z,5.30
2023-02-23T22:52:07.797Z,5.30
2023-02-23T22:54:39.905Z,5.10
2023-02-23T22:57:09.168Z,4.90
2023-02-23T22:59:37.769Z,4.90
2023-02-23T23:02:06.063Z,4.90
2023-02-23T23:04:36.854Z,4.80
2023-02-23T23:07:08.155Z,4.80
2023-02-23T23:09:39.546Z,4.80
2023-02-23T23:12:12.115Z,5.00
2023-02-23T23:14:41.423Z,4.80
2023-02-23T23:17:10.004Z,4.80
2023-02-23T23:19:39.402Z,4.90
2023-02-23T23:22:14.820Z,5.20
2023-02-23T23:24:46.395Z,5.00
2023-02-23T23:27:19.911Z,5.10
2023-02-23T23:29:53.246Z,5.10
2023-02-23T23:32:27.911Z,5.10
2023-02-23T23:34:58.751Z,5.10
2023-02-23T23:37:29.310Z,5.10
2023-02-23T23:40:02.072Z,5.00
2023-02-23T23:42:30.731Z,5.00
2023-02-23T23:45:03.707Z,5.00
2023-02-23T23:47:32.316Z,5.00
2023-02-23T23:50:03.024Z,5.10
2023-02-23T23:52:35.672Z,5.00
2023-02-23T23:55:07.509Z,5.00
2023-02-23T23:57:39.322Z,5.00
